sensor_id;sensor_type;location;lat;lon;timestamp;pressure;altitude;pressure_sealevel;temperature;humidity
9249;BME280;4660;41.768;26.198;2023-04-19T00:01:30;100380.41;;;11.71;100.00
9249;BME280;4660;41.768;26.198;2023-04-19T00:03:56;100374.50;;;11.85;100.00
9249;BME280;4660;41.768;26.198;2023-04-19T00:06:22;100361.34;;;11.64;100.00
9249;BME280;4660;41.768;26.198;2023-04-19T00:08:48;100369.97;;;11.68;100.00
9249;BME280;4660;41.768;26.198;2023-04-19T00:11:14;100370.88;;;11.76;100.00
9249;BME280;4660;41.768;26.198;2023-04-19T00:13:40;100359.66;;;11.81;100.00
9249;BME280;4660;41.768;26.198;2023-04-19T00:16:06;100357.19;;;11.70;100.00
9249;BME280;4660;41.768;26.198;2023-04-19T00:18:31;100368.44;;;11.65;100.00
9249;BME280;4660;41.768;26.198;2023-04-19T00:20:57;100356.72;;;11.56;100.00
9249;BME280;4660;41.768;26.198;2023-04-19T00:23:22;100361.09;;;11.75;100.00
9249;BME280;4660;41.768;26.198;2023-04-19T00:25:49;100352.00;;;11.76;100.00
9249;BME280;4660;41.768;26.198;2023-04-19T00:28:15;100350.66;;;11.72;100.00
9249;BME280;4660;41.768;26.198;2023-04-19T00:30:40;100345.56;;;11.69;100.00
9249;BME280;4660;41.768;26.198;2023-04-19T00:33:06;100348.25;;;11.69;100.00
9249;BME280;4660;41.768;26.198;2023-04-19T00:35:40;100356.94;;;11.63;100.00
9249;BME280;4660;41.768;26.198;2023-04-19T00:38:09;100350.94;;;11.69;100.00
9249;BME280;4660;41.768;26.198;2023-04-19T00:40:36;100351.72;;;11.62;100.00
9249;BME280;4660;41.768;26.198;2023-04-19T00:43:01;100348.03;;;11.63;100.00
9249;BME280;4660;41.768;26.198;2023-04-19T00:45:27;100342.56;;;11.72;100.00
9249;BME280;4660;41.768;26.198;2023-04-19T00:47:53;100357.72;;;11.73;100.00
9249;BME280;4660;41.768;26.198;2023-04-19T00:50:20;100347.03;;;11.64;100.00
9249;BME280;4660;41.768;26.198;2023-04-19T00:52:46;100364.47;;;11.51;100.00
9249;BME280;4660;41.768;26.198;2023-04-19T00:55:12;100359.66;;;11.63;100.00
9249;BME280;4660;41.768;26.198;2023-04-19T00:57:37;100347.03;;;11.64;100.00
9249;BME280;4660;41.768;26.198;2023-04-19T01:00:03;100360.59;;;11.72;100.00
9249;BME280;4660;41.768;26.198;2023-04-19T01:02:35;100336.94;;;11.66;100.00
9249;BME280;4660;41.768;26.198;2023-04-19T01:05:01;100339.19;;;11.78;100.00
9249;BME280;4660;41.768;26.198;2023-04-19T01:07:27;100356.31;;;11.69;100.00
9249;BME280;4660;41.768;26.198;2023-04-19T01:09:53;100345.25;;;11.72;100.00
9249;BME280;4660;41.768;26.198;2023-04-19T01:12:19;100344.59;;;11.78;100.00
9249;BME280;4660;41.768;26.198;2023-04-19T01:14:44;100346.19;;;11.81;100.00
9249;BME280;4660;41.768;26.198;2023-04-19T01:17:10;100341.38;;;11.75;100.00
9249;BME280;4660;41.768;26.198;2023-04-19T01:19:37;100340.47;;;11.84;100.00
9249;BME280;4660;41.768;26.198;2023-04-19T01:22:03;100351.84;;;11.96;100.00
9249;BME280;4660;41.768;26.198;2023-04-19T01:24:29;100339.88;;;11.98;100.00
9249;BME280;4660;41.768;26.198;2023-04-19T01:26:55;100334.47;;;11.98;100.00
9249;BME280;4660;41.768;26.198;2023-04-19T01:29:20;100327.28;;;12.07;100.00
9249;BME280;4660;41.768;26.198;2023-04-19T01:31:47;100340.09;;;12.05;100.00
9249;BME280;4660;41.768;26.198;2023-04-19T01:34:20;100330.25;;;11.96;100.00
9249;BME280;4660;41.768;26.198;2023-04-19T01:36:47;100335.81;;;11.94;100.00
9249;BME280;4660;41.768;26.198;2023-04-19T01:39:13;100336.84;;;11.93;100.00
9249;BME280;4660;41.768;26.198;2023-04-19T01:41:38;100338.66;;;11.93;100.00
9249;BME280;4660;41.768;26.198;2023-04-19T01:44:04;100331.88;;;11.80;100.00
9249;BME280;4660;41.768;26.198;2023-04-19T01:46:29;100335.84;;;11.76;100.00
9249;BME280;4660;41.768;26.198;2023-04-19T01:48:55;100333.75;;;11.70;100.00
9249;BME280;4660;41.768;26.198;2023-04-19T01:51:20;100330.56;;;11.67;100.00
9249;BME280;4660;41.768;26.198;2023-04-19T01:53:46;100322.41;;;11.58;100.00
9249;BME280;4660;41.768;26.198;2023-04-19T01:56:17;100325.06;;;11.76;100.00
9249;BME280;4660;41.768;26.198;2023-04-19T01:58:43;100317.22;;;11.83;100.00
9249;BME280;4660;41.768;26.198;2023-04-19T02:01:08;100309.56;;;11.78;100.00
9249;BME280;4660;41.768;26.198;2023-04-19T02:03:40;100322.53;;;11.75;100.00
9249;BME280;4660;41.768;26.198;2023-04-19T02:06:10;100317.97;;;11.75;100.00
9249;BME280;4660;41.768;26.198;2023-04-19T02:08:37;100330.16;;;11.62;100.00
9249;BME280;4660;41.768;26.198;2023-04-19T02:11:07;100312.09;;;11.54;100.00
9249;BME280;4660;41.768;26.198;2023-04-19T02:13:33;100316.25;;;11.48;100.00
9249;BME280;4660;41.768;26.198;2023-04-19T02:15:59;100320.50;;;11.51;100.00
9249;BME280;4660;41.768;26.198;2023-04-19T02:18:28;100318.66;;;11.51;100.00
9249;BME280;4660;41.768;26.198;2023-04-19T02:20:54;100317.72;;;11.61;100.00
9249;BME280;4660;41.768;26.198;2023-04-19T02:23:20;100316.03;;;11.60;100.00
9249;BME280;4660;41.768;26.198;2023-04-19T02:25:45;100315.19;;;11.59;100.00
9249;BME280;4660;41.768;26.198;2023-04-19T02:28:11;100304.69;;;11.56;100.00
9249;BME280;4660;41.768;26.198;2023-04-19T02:30:36;100312.53;;;11.67;100.00
9249;BME280;4660;41.768;26.198;2023-04-19T02:33:02;100305.03;;;11.53;100.00
9249;BME280;4660;41.768;26.198;2023-04-19T02:35:28;100307.72;;;11.53;100.00
9249;BME280;4660;41.768;26.198;2023-04-19T02:37:53;100270.88;;;11.36;100.00
9249;BME280;4660;41.768;26.198;2023-04-19T02:40:19;100307.78;;;11.61;100.00
9249;BME280;4660;41.768;26.198;2023-04-19T02:42:47;100301.31;;;11.54;100.00
9249;BME280;4660;41.768;26.198;2023-04-19T02:45:13;100296.16;;;11.61;100.00
9249;BME280;4660;41.768;26.198;2023-04-19T02:47:38;100292.06;;;11.56;100.00
9249;BME280;4660;41.768;26.198;2023-04-19T02:50:04;100302.22;;;11.63;100.00
9249;BME280;4660;41.768;26.198;2023-04-19T02:52:30;100302.38;;;11.61;100.00
9249;BME280;4660;41.768;26.198;2023-04-19T02:54:55;100298.53;;;11.64;100.00
9249;BME280;4660;41.768;26.198;2023-04-19T02:57:21;100289.16;;;11.50;100.00
9249;BME280;4660;41.768;26.198;2023-04-19T02:59:46;100289.53;;;11.55;100.00
9249;BME280;4660;41.768;26.198;2023-04-19T03:02:12;100290.22;;;11.57;100.00
9249;BME280;4660;41.768;26.198;2023-04-19T03:04:37;100288.47;;;11.48;100.00
9249;BME280;4660;41.768;26.198;2023-04-19T03:07:03;100292.25;;;11.55;100.00
9249;BME280;4660;41.768;26.198;2023-04-19T03:09:28;100261.97;;;11.35;100.00
9249;BME280;4660;41.768;26.198;2023-04-19T03:11:54;100291.94;;;11.58;100.00
9249;BME280;4660;41.768;26.198;2023-04-19T03:14:19;100297.69;;;11.63;100.00
9249;BME280;4660;41.768;26.198;2023-04-19T03:16:45;100303.41;;;11.60;100.00
9249;BME280;4660;41.768;26.198;2023-04-19T03:19:10;100300.94;;;11.49;100.00
9249;BME280;4660;41.768;26.198;2023-04-19T03:21:36;100304.41;;;11.59;100.00
9249;BME280;4660;41.768;26.198;2023-04-19T03:24:01;100315.25;;;11.49;100.00
9249;BME280;4660;41.768;26.198;2023-04-19T03:26:27;100312.50;;;11.41;100.00
9249;BME280;4660;41.768;26.198;2023-04-19T03:28:52;100309.75;;;11.51;100.00
9249;BME280;4660;41.768;26.198;2023-04-19T03:31:18;100300.38;;;11.37;100.00
9249;BME280;4660;41.768;26.198;2023-04-19T03:33:43;100303.91;;;11.38;100.00
9249;BME280;4660;41.768;26.198;2023-04-19T03:36:09;100311.81;;;11.39;100.00
9249;BME280;4660;41.768;26.198;2023-04-19T03:38:35;100311.28;;;11.36;100.00
9249;BME280;4660;41.768;26.198;2023-04-19T03:41:01;100312.16;;;11.36;100.00
9249;BME280;4660;41.768;26.198;2023-04-19T03:43:26;100319.00;;;11.30;100.00
9249;BME280;4660;41.768;26.198;2023-04-19T03:45:52;100316.66;;;11.36;100.00
9249;BME280;4660;41.768;26.198;2023-04-19T03:48:17;100274.22;;;11.29;100.00
9249;BME280;4660;41.768;26.198;2023-04-19T03:50:43;100310.03;;;11.48;100.00
9249;BME280;4660;41.768;26.198;2023-04-19T03:53:08;100310.66;;;11.42;100.00
9249;BME280;4660;41.768;26.198;2023-04-19T03:55:34;100313.28;;;11.51;100.00
9249;BME280;4660;41.768;26.198;2023-04-19T03:57:59;100321.34;;;11.51;100.00
9249;BME280;4660;41.768;26.198;2023-04-19T04:00:25;100314.97;;;11.52;100.00
9249;BME280;4660;41.768;26.198;2023-04-19T04:02:51;100318.50;;;11.53;100.00
9249;BME280;4660;41.768;26.198;2023-04-19T04:05:17;100324.53;;;11.73;100.00
9249;BME280;4660;41.768;26.198;2023-04-19T04:07:42;100324.41;;;11.56;100.00
9249;BME280;4660;41.768;26.198;2023-04-19T04:10:08;100281.47;;;11.29;100.00
9249;BME280;4660;41.768;26.198;2023-04-19T04:12:33;100329.50;;;11.42;100.00
9249;BME280;4660;41.768;26.198;2023-04-19T04:14:59;100319.53;;;11.34;100.00
9249;BME280;4660;41.768;26.198;2023-04-19T04:17:24;100323.59;;;11.38;100.00
9249;BME280;4660;41.768;26.198;2023-04-19T04:19:50;100327.16;;;11.39;100.00
9249;BME280;4660;41.768;26.198;2023-04-19T04:22:16;100319.53;;;11.34;100.00
9249;BME280;4660;41.768;26.198;2023-04-19T04:24:41;100331.69;;;11.64;100.00
9249;BME280;4660;41.768;26.198;2023-04-19T04:27:08;100322.53;;;11.75;100.00
9249;BME280;4660;41.768;26.198;2023-04-19T04:29:38;100327.19;;;11.91;100.00
9249;BME280;4660;41.768;26.198;2023-04-19T04:32:07;100326.19;;;11.92;100.00
9249;BME280;4660;41.768;26.198;2023-04-19T04:34:35;100326.47;;;11.80;100.00
9249;BME280;4660;41.768;26.198;2023-04-19T04:37:02;100324.00;;;11.69;100.00
9249;BME280;4660;41.768;26.198;2023-04-19T04:39:28;100314.00;;;11.62;100.00
9249;BME280;4660;41.768;26.198;2023-04-19T04:41:54;100337.41;;;11.61;100.00
9249;BME280;4660;41.768;26.198;2023-04-19T04:44:22;100323.03;;;11.52;100.00
9249;BME280;4660;41.768;26.198;2023-04-19T04:46:48;100324.34;;;11.48;100.00
9249;BME280;4660;41.768;26.198;2023-04-19T04:49:13;100321.19;;;11.53;100.00
9249;BME280;4660;41.768;26.198;2023-04-19T04:51:39;100318.56;;;11.61;100.00
9249;BME280;4660;41.768;26.198;2023-04-19T04:54:05;100322.63;;;11.65;100.00
9249;BME280;4660;41.768;26.198;2023-04-19T04:56:30;100322.69;;;11.73;100.00
9249;BME280;4660;41.768;26.198;2023-04-19T04:58:56;100331.06;;;11.70;100.00
9249;BME280;4660;41.768;26.198;2023-04-19T05:01:22;100311.00;;;11.65;100.00
9249;BME280;4660;41.768;26.198;2023-04-19T05:03:48;100321.78;;;11.65;100.00
9249;BME280;4660;41.768;26.198;2023-04-19T05:06:14;100324.53;;;11.73;100.00
9249;BME280;4660;41.768;26.198;2023-04-19T05:08:39;100325.91;;;11.77;100.00
9249;BME280;4660;41.768;26.198;2023-04-19T05:11:05;100315.69;;;11.80;100.00
9249;BME280;4660;41.768;26.198;2023-04-19T05:13:30;100327.53;;;11.88;100.00
9249;BME280;4660;41.768;26.198;2023-04-19T05:15:56;100319.69;;;12.02;100.00
9249;BME280;4660;41.768;26.198;2023-04-19T05:18:22;100326.16;;;12.18;100.00
9249;BME280;4660;41.768;26.198;2023-04-19T05:20:47;100321.63;;;12.18;100.00
9249;BME280;4660;41.768;26.198;2023-04-19T05:23:13;100332.88;;;12.13;100.00
9249;BME280;4660;41.768;26.198;2023-04-19T05:25:38;100326.34;;;12.16;100.00
9249;BME280;4660;41.768;26.198;2023-04-19T05:28:04;100296.63;;;12.08;100.00
9249;BME280;4660;41.768;26.198;2023-04-19T05:30:29;100294.28;;;12.13;100.00
9249;BME280;4660;41.768;26.198;2023-04-19T05:32:55;100314.91;;;12.22;100.00
9249;BME280;4660;41.768;26.198;2023-04-19T05:35:21;100302.38;;;12.13;100.00
9249;BME280;4660;41.768;26.198;2023-04-19T05:37:46;100339.81;;;12.16;100.00
9249;BME280;4660;41.768;26.198;2023-04-19T05:40:12;100318.13;;;12.00;100.00
9249;BME280;4660;41.768;26.198;2023-04-19T05:42:38;100311.66;;;12.19;100.00
9249;BME280;4660;41.768;26.198;2023-04-19T05:45:04;100319.97;;;12.25;100.00
9249;BME280;4660;41.768;26.198;2023-04-19T05:47:30;100315.56;;;12.24;100.00
9249;BME280;4660;41.768;26.198;2023-04-19T05:49:56;100325.03;;;12.28;100.00
9249;BME280;4660;41.768;26.198;2023-04-19T05:52:21;100335.50;;;12.31;100.00
9249;BME280;4660;41.768;26.198;2023-04-19T05:54:47;100342.63;;;12.40;100.00
9249;BME280;4660;41.768;26.198;2023-04-19T05:57:12;100327.59;;;12.30;100.00
9249;BME280;4660;41.768;26.198;2023-04-19T05:59:38;100348.63;;;12.26;100.00
9249;BME280;4660;41.768;26.198;2023-04-19T06:02:03;100338.84;;;12.25;100.00
9249;BME280;4660;41.768;26.198;2023-04-19T06:04:30;100335.50;;;12.31;100.00
9249;BME280;4660;41.768;26.198;2023-04-19T06:06:57;100336.09;;;12.51;100.00
9249;BME280;4660;41.768;26.198;2023-04-19T06:09:22;100334.06;;;12.53;100.00
9249;BME280;4660;41.768;26.198;2023-04-19T06:11:48;100334.94;;;12.62;100.00
9249;BME280;4660;41.768;26.198;2023-04-19T06:14:13;100349.47;;;12.69;100.00
9249;BME280;4660;41.768;26.198;2023-04-19T06:16:39;100343.38;;;12.59;100.00
9249;BME280;4660;41.768;26.198;2023-04-19T06:19:06;100356.75;;;12.77;100.00
9249;BME280;4660;41.768;26.198;2023-04-19T06:21:36;100342.75;;;12.73;100.00
9249;BME280;4660;41.768;26.198;2023-04-19T06:24:02;100361.00;;;12.87;100.00
9249;BME280;4660;41.768;26.198;2023-04-19T06:26:28;100357.97;;;12.90;100.00
9249;BME280;4660;41.768;26.198;2023-04-19T06:28:54;100355.81;;;13.02;100.00
9249;BME280;4660;41.768;26.198;2023-04-19T06:31:20;100346.84;;;13.02;100.00
9249;BME280;4660;41.768;26.198;2023-04-19T06:33:45;100358.25;;;13.30;100.00
9249;BME280;4660;41.768;26.198;2023-04-19T06:36:11;100366.84;;;13.66;100.00
9249;BME280;4660;41.768;26.198;2023-04-19T06:38:37;100368.69;;;13.82;100.00
9249;BME280;4660;41.768;26.198;2023-04-19T06:41:03;100355.69;;;13.61;100.00
9249;BME280;4660;41.768;26.198;2023-04-19T06:43:29;100360.75;;;13.80;100.00
9249;BME280;4660;41.768;26.198;2023-04-19T06:46:01;100359.75;;;13.73;100.00
9249;BME280;4660;41.768;26.198;2023-04-19T06:48:29;100366.16;;;13.64;100.00
9249;BME280;4660;41.768;26.198;2023-04-19T06:50:55;100365.81;;;13.83;100.00
9249;BME280;4660;41.768;26.198;2023-04-19T06:53:21;100343.22;;;13.52;100.00
9249;BME280;4660;41.768;26.198;2023-04-19T06:55:47;100380.16;;;13.92;100.00
9249;BME280;4660;41.768;26.198;2023-04-19T06:58:14;100382.88;;;13.92;100.00
9249;BME280;4660;41.768;26.198;2023-04-19T07:00:39;100363.09;;;13.83;100.00
9249;BME280;4660;41.768;26.198;2023-04-19T07:03:05;100385.72;;;14.07;100.00
9249;BME280;4660;41.768;26.198;2023-04-19T07:05:31;100359.84;;;14.12;100.00
9249;BME280;4660;41.768;26.198;2023-04-19T07:07:57;100372.31;;;14.29;100.00
9249;BME280;4660;41.768;26.198;2023-04-19T07:10:22;100374.00;;;14.30;100.00
9249;BME280;4660;41.768;26.198;2023-04-19T07:12:48;100353.66;;;14.51;100.00
9249;BME280;4660;41.768;26.198;2023-04-19T07:15:17;100360.59;;;14.45;100.00
9249;BME280;4660;41.768;26.198;2023-04-19T07:17:42;100371.16;;;14.71;100.00
9249;BME280;4660;41.768;26.198;2023-04-19T07:20:08;100376.56;;;14.71;100.00
9249;BME280;4660;41.768;26.198;2023-04-19T07:22:34;100371.47;;;14.76;100.00
9249;BME280;4660;41.768;26.198;2023-04-19T07:25:00;100382.81;;;14.80;100.00
9249;BME280;4660;41.768;26.198;2023-04-19T07:27:26;100382.72;;;14.96;100.00
9249;BME280;4660;41.768;26.198;2023-04-19T07:29:51;100363.44;;;14.91;100.00
9249;BME280;4660;41.768;26.198;2023-04-19T07:32:17;100380.28;;;15.09;100.00
9249;BME280;4660;41.768;26.198;2023-04-19T07:34:43;100360.53;;;15.24;100.00
9249;BME280;4660;41.768;26.198;2023-04-19T07:37:10;100406.28;;;15.41;100.00
9249;BME280;4660;41.768;26.198;2023-04-19T07:39:36;100388.72;;;15.14;100.00
9249;BME280;4660;41.768;26.198;2023-04-19T07:42:02;100394.13;;;15.14;100.00
9249;BME280;4660;41.768;26.198;2023-04-19T07:44:28;100387.09;;;14.97;100.00
9249;BME280;4660;41.768;26.198;2023-04-19T07:46:54;100373.25;;;14.92;100.00
9249;BME280;4660;41.768;26.198;2023-04-19T07:49:19;100397.84;;;15.13;100.00
9249;BME280;4660;41.768;26.198;2023-04-19T07:51:45;100404.06;;;15.22;100.00
9249;BME280;4660;41.768;26.198;2023-04-19T07:54:10;100412.69;;;15.26;100.00
9249;BME280;4660;41.768;26.198;2023-04-19T07:56:36;100402.09;;;15.39;100.00
9249;BME280;4660;41.768;26.198;2023-04-19T07:59:02;100396.84;;;15.37;100.00
9249;BME280;4660;41.768;26.198;2023-04-19T08:01:30;100390.09;;;15.56;100.00
9249;BME280;4660;41.768;26.198;2023-04-19T08:03:56;100405.81;;;15.84;100.00
9249;BME280;4660;41.768;26.198;2023-04-19T08:06:24;100399.81;;;15.74;100.00
9249;BME280;4660;41.768;26.198;2023-04-19T08:08:51;100391.34;;;15.91;100.00
9249;BME280;4660;41.768;26.198;2023-04-19T08:11:16;100384.13;;;15.84;100.00
9249;BME280;4660;41.768;26.198;2023-04-19T08:13:45;100391.38;;;15.68;100.00
9249;BME280;4660;41.768;26.198;2023-04-19T08:16:10;100392.78;;;15.56;100.00
9249;BME280;4660;41.768;26.198;2023-04-19T08:18:36;100395.22;;;15.51;100.00
9249;BME280;4660;41.768;26.198;2023-04-19T08:21:03;100401.97;;;15.55;100.00
9249;BME280;4660;41.768;26.198;2023-04-19T08:23:29;100406.16;;;15.35;100.00
9249;BME280;4660;41.768;26.198;2023-04-19T08:25:54;100399.75;;;15.05;100.00
9249;BME280;4660;41.768;26.198;2023-04-19T08:28:22;100412.31;;;14.98;100.00
9249;BME280;4660;41.768;26.198;2023-04-19T08:30:47;100392.75;;;14.88;100.00
9249;BME280;4660;41.768;26.198;2023-04-19T08:33:13;100382.44;;;14.83;100.00
9249;BME280;4660;41.768;26.198;2023-04-19T08:35:40;100369.59;;;14.77;100.00
9249;BME280;4660;41.768;26.198;2023-04-19T08:38:06;100413.97;;;14.76;100.00
9249;BME280;4660;41.768;26.198;2023-04-19T08:40:32;100398.78;;;14.67;100.00
9249;BME280;4660;41.768;26.198;2023-04-19T08:42:58;100402.53;;;14.57;100.00
9249;BME280;4660;41.768;26.198;2023-04-19T08:45:27;100396.03;;;14.75;100.00
9249;BME280;4660;41.768;26.198;2023-04-19T08:47:53;100405.13;;;14.82;100.00
9249;BME280;4660;41.768;26.198;2023-04-19T08:50:20;100377.28;;;14.65;100.00
9249;BME280;4660;41.768;26.198;2023-04-19T08:52:46;100396.63;;;14.85;100.00
9249;BME280;4660;41.768;26.198;2023-04-19T08:55:12;100384.53;;;14.73;100.00
9249;BME280;4660;41.768;26.198;2023-04-19T08:57:39;100397.91;;;14.74;100.00
9249;BME280;4660;41.768;26.198;2023-04-19T09:00:07;100400.19;;;14.46;100.00
9249;BME280;4660;41.768;26.198;2023-04-19T09:02:46;100397.97;;;14.42;100.00
9249;BME280;4660;41.768;26.198;2023-04-19T09:05:13;100374.00;;;14.30;100.00
9249;BME280;4660;41.768;26.198;2023-04-19T09:07:39;100403.56;;;14.48;100.00
9249;BME280;4660;41.768;26.198;2023-04-19T09:10:10;100393.91;;;14.54;100.00
9249;BME280;4660;41.768;26.198;2023-04-19T09:12:39;100371.41;;;14.45;100.00
9249;BME280;4660;41.768;26.198;2023-04-19T09:15:07;100402.50;;;14.66;100.00
9249;BME280;4660;41.768;26.198;2023-04-19T09:17:42;100391.63;;;14.74;100.00
9249;BME280;4660;41.768;26.198;2023-04-19T09:20:09;100389.41;;;14.77;100.00
9249;BME280;4660;41.768;26.198;2023-04-19T09:22:35;100398.22;;;14.79;100.00
9249;BME280;4660;41.768;26.198;2023-04-19T09:25:00;100384.22;;;14.68;100.00
9249;BME280;4660;41.768;26.198;2023-04-19T09:27:31;100388.19;;;14.88;100.00
9249;BME280;4660;41.768;26.198;2023-04-19T09:30:00;100384.25;;;14.91;100.00
9249;BME280;4660;41.768;26.198;2023-04-19T09:32:26;100378.19;;;14.89;100.00
9249;BME280;4660;41.768;26.198;2023-04-19T09:34:55;100390.56;;;15.14;100.00
9249;BME280;4660;41.768;26.198;2023-04-19T09:37:22;100400.41;;;15.38;100.00
9249;BME280;4660;41.768;26.198;2023-04-19T09:39:47;100392.41;;;15.22;100.00
9249;BME280;4660;41.768;26.198;2023-04-19T09:42:13;100389.84;;;15.20;100.00
9249;BME280;4660;41.768;26.198;2023-04-19T09:44:38;100389.56;;;15.07;100.00
9249;BME280;4660;41.768;26.198;2023-04-19T09:47:26;100390.47;;;14.99;100.00
9249;BME280;4660;41.768;26.198;2023-04-19T09:50:05;100392.63;;;14.81;100.00
9249;BME280;4660;41.768;26.198;2023-04-19T09:52:32;100373.47;;;14.51;100.00
9249;BME280;4660;41.768;26.198;2023-04-19T09:55:03;100399.16;;;14.55;100.00
9249;BME280;4660;41.768;26.198;2023-04-19T09:57:30;100400.53;;;14.43;100.00
9249;BME280;4660;41.768;26.198;2023-04-19T10:00:00;100388.34;;;14.39;100.00
9249;BME280;4660;41.768;26.198;2023-04-19T10:02:30;100404.22;;;14.58;100.00
9249;BME280;4660;41.768;26.198;2023-04-19T10:04:57;100398.22;;;14.71;100.00
9249;BME280;4660;41.768;26.198;2023-04-19T10:07:24;100401.47;;;14.67;100.00
9249;BME280;4660;41.768;26.198;2023-04-19T10:09:54;100405.91;;;14.59;100.00
9249;BME280;4660;41.768;26.198;2023-04-19T10:12:23;100379.53;;;14.45;100.00
9249;BME280;4660;41.768;26.198;2023-04-19T10:14:52;100396.75;;;14.61;100.00
9249;BME280;4660;41.768;26.198;2023-04-19T10:17:18;100412.63;;;14.72;100.00
9249;BME280;4660;41.768;26.198;2023-04-19T10:19:45;100335.31;;;14.14;100.00
9249;BME280;4660;41.768;26.198;2023-04-19T10:22:11;100372.97;;;14.31;100.00
9249;BME280;4660;41.768;26.198;2023-04-19T10:24:38;100397.50;;;14.38;100.00
9249;BME280;4660;41.768;26.198;2023-04-19T10:27:11;100379.75;;;14.27;100.00
9249;BME280;4660;41.768;26.198;2023-04-19T10:29:57;100404.78;;;14.46;100.00
9249;BME280;4660;41.768;26.198;2023-04-19T10:32:26;100408.78;;;14.58;100.00
9249;BME280;4660;41.768;26.198;2023-04-19T10:34:52;100403.72;;;14.55;100.00
9249;BME280;4660;41.768;26.198;2023-04-19T10:37:22;100398.16;;;14.88;100.00
9249;BME280;4660;41.768;26.198;2023-04-19T10:39:49;100388.19;;;14.88;100.00
9249;BME280;4660;41.768;26.198;2023-04-19T10:42:15;100385.81;;;14.85;100.00
9249;BME280;4660;41.768;26.198;2023-04-19T10:44:41;100404.56;;;14.95;100.00
9249;BME280;4660;41.768;26.198;2023-04-19T10:47:07;100403.22;;;14.91;100.00
9249;BME280;4660;41.768;26.198;2023-04-19T10:49:54;100381.06;;;14.87;100.00
9249;BME280;4660;41.768;26.198;2023-04-19T10:52:27;100397.00;;;15.13;100.00
9249;BME280;4660;41.768;26.198;2023-04-19T10:54:55;100400.88;;;15.19;100.00
9249;BME280;4660;41.768;26.198;2023-04-19T10:57:21;100383.38;;;14.98;100.00
9249;BME280;4660;41.768;26.198;2023-04-19T11:00:19;100405.31;;;15.11;100.00
9249;BME280;4660;41.768;26.198;2023-04-19T11:02:50;100403.75;;;15.17;100.00
9249;BME280;4660;41.768;26.198;2023-04-19T11:05:16;100393.56;;;15.19;100.00
9249;BME280;4660;41.768;26.198;2023-04-19T11:07:42;100387.00;;;15.13;100.00
9249;BME280;4660;41.768;26.198;2023-04-19T11:10:10;100394.34;;;15.05;100.00
9249;BME280;4660;41.768;26.198;2023-04-19T11:12:43;100393.88;;;15.01;100.00
9249;BME280;4660;41.768;26.198;2023-04-19T11:15:09;100404.25;;;14.90;100.00
9249;BME280;4660;41.768;26.198;2023-04-19T11:17:36;100411.66;;;14.96;100.00
9249;BME280;4660;41.768;26.198;2023-04-19T11:20:06;100406.47;;;14.86;100.00
9249;BME280;4660;41.768;26.198;2023-04-19T11:25:43;100287.78;;;13.56;100.00
9249;BME280;4660;41.768;26.198;2023-04-19T11:28:32;100265.69;;;13.44;100.00
9249;BME280;4660;41.768;26.198;2023-04-19T11:30:59;100331.16;;;13.78;100.00
9249;BME280;4660;41.768;26.198;2023-04-19T11:34:10;100291.84;;;13.35;100.00
9249;BME280;4660;41.768;26.198;2023-04-19T11:37:19;100376.63;;;13.83;100.00
9249;BME280;4660;41.768;26.198;2023-04-19T11:39:59;100407.50;;;14.13;100.00
9249;BME280;4660;41.768;26.198;2023-04-19T11:42:32;100272.47;;;13.24;100.00
9249;BME280;4660;41.768;26.198;2023-04-19T11:45:02;100327.31;;;13.73;100.00
9249;BME280;4660;41.768;26.198;2023-04-19T11:47:51;100346.50;;;14.02;100.00
9249;BME280;4660;41.768;26.198;2023-04-19T11:56:07;100290.41;;;14.36;100.00
9249;BME280;4660;41.768;26.198;2023-04-19T11:58:40;100395.69;;;15.09;100.00
9249;BME280;4660;41.768;26.198;2023-04-19T12:06:43;100396.06;;;15.52;100.00
9249;BME280;4660;41.768;26.198;2023-04-19T12:15:03;100351.47;;;15.54;100.00
9249;BME280;4660;41.768;26.198;2023-04-19T12:22:55;100376.31;;;16.77;100.00
9249;BME280;4660;41.768;26.198;2023-04-19T12:50:00;100373.88;;;16.83;100.00
9249;BME280;4660;41.768;26.198;2023-04-19T12:52:29;100341.59;;;16.43;100.00
9249;BME280;4660;41.768;26.198;2023-04-19T12:55:18;100325.78;;;16.03;100.00
9249;BME280;4660;41.768;26.198;2023-04-19T13:00:25;100368.44;;;15.94;100.00
9249;BME280;4660;41.768;26.198;2023-04-19T13:02:58;100369.75;;;15.98;100.00
9249;BME280;4660;41.768;26.198;2023-04-19T13:05:59;100365.25;;;15.90;100.00
9249;BME280;4660;41.768;26.198;2023-04-19T13:08:52;100366.00;;;15.99;100.00
9249;BME280;4660;41.768;26.198;2023-04-19T13:11:22;100368.56;;;16.15;100.00
9249;BME280;4660;41.768;26.198;2023-04-19T13:13:49;100368.91;;;16.27;100.00
9249;BME280;4660;41.768;26.198;2023-04-19T13:16:18;100376.72;;;16.30;100.00
9249;BME280;4660;41.768;26.198;2023-04-19T13:18:44;100368.47;;;16.23;100.00
9249;BME280;4660;41.768;26.198;2023-04-19T13:21:14;100375.56;;;16.10;100.00
9249;BME280;4660;41.768;26.198;2023-04-19T13:31:28;100326.41;;;15.75;100.00
9249;BME280;4660;41.768;26.198;2023-04-19T13:34:43;100266.81;;;15.67;100.00
9249;BME280;4660;41.768;26.198;2023-04-19T13:37:20;100302.28;;;16.10;100.00
9249;BME280;4660;41.768;26.198;2023-04-19T13:40:39;100354.50;;;16.41;100.00
9249;BME280;4660;41.768;26.198;2023-04-19T13:43:21;100337.38;;;16.41;100.00
9249;BME280;4660;41.768;26.198;2023-04-19T13:45:48;100290.31;;;16.04;100.00
9249;BME280;4660;41.768;26.198;2023-04-19T13:48:14;100331.75;;;16.42;100.00
9249;BME280;4660;41.768;26.198;2023-04-19T13:50:45;100335.19;;;16.66;100.00
9249;BME280;4660;41.768;26.198;2023-04-19T13:53:17;100362.38;;;16.81;100.00
9249;BME280;4660;41.768;26.198;2023-04-19T13:55:47;100250.53;;;16.11;100.00